sensor_id;sensor_type;location;lat;lon;timestamp;temperature;humidity
16767;DHT22;8501;49.926;8.404;2024-01-15T00:00:43;-1.00;99.90
16767;DHT22;8501;49.926;8.404;2024-01-15T00:03:09;-1.00;99.90
16767;DHT22;8501;49.926;8.404;2024-01-15T00:05:36;-1.00;99.90
16767;DHT22;8501;49.926;8.404;2024-01-15T00:08:01;-1.00;99.90
16767;DHT22;8501;49.926;8.404;2024-01-15T00:10:27;-1.00;99.90
16767;DHT22;8501;49.926;8.404;2024-01-15T00:12:52;-1.00;99.90
16767;DHT22;8501;49.926;8.404;2024-01-15T00:15:18;-1.00;99.90
16767;DHT22;8501;49.926;8.404;2024-01-15T00:17:43;-1.00;99.90
16767;DHT22;8501;49.926;8.404;2024-01-15T00:20:09;-1.00;99.90
16767;DHT22;8501;49.926;8.404;2024-01-15T00:22:35;-0.90;99.90
16767;DHT22;8501;49.926;8.404;2024-01-15T00:25:01;-0.90;99.90
16767;DHT22;8501;49.926;8.404;2024-01-15T00:27:27;-1.00;99.90
16767;DHT22;8501;49.926;8.404;2024-01-15T00:29:52;-1.00;99.90
16767;DHT22;8501;49.926;8.404;2024-01-15T00:32:19;-0.90;99.90
16767;DHT22;8501;49.926;8.404;2024-01-15T00:34:45;-0.90;99.90
16767;DHT22;8501;49.926;8.404;2024-01-15T00:37:11;-0.90;99.90
16767;DHT22;8501;49.926;8.404;2024-01-15T00:39:36;-0.90;99.90
16767;DHT22;8501;49.926;8.404;2024-01-15T00:42:02;-0.90;99.90
16767;DHT22;8501;49.926;8.404;2024-01-15T00:44:28;-0.90;99.90
16767;DHT22;8501;49.926;8.404;2024-01-15T00:46:53;-0.90;99.90
16767;DHT22;8501;49.926;8.404;2024-01-15T00:49:19;-0.90;99.90
16767;DHT22;8501;49.926;8.404;2024-01-15T00:51:44;-0.90;99.90
16767;DHT22;8501;49.926;8.404;2024-01-15T00:54:10;-0.90;99.90
16767;DHT22;8501;49.926;8.404;2024-01-15T00:56:36;-0.80;99.90
16767;DHT22;8501;49.926;8.404;2024-01-15T00:59:02;-0.90;99.90
16767;DHT22;8501;49.926;8.404;2024-01-15T01:01:27;-0.80;99.90
16767;DHT22;8501;49.926;8.404;2024-01-15T01:03:52;-0.80;99.90
16767;DHT22;8501;49.926;8.404;2024-01-15T01:06:18;-0.80;99.90
16767;DHT22;8501;49.926;8.404;2024-01-15T01:08:43;-0.80;99.90
16767;DHT22;8501;49.926;8.404;2024-01-15T01:11:13;-0.90;99.90
16767;DHT22;8501;49.926;8.404;2024-01-15T01:13:38;-0.80;99.90
16767;DHT22;8501;49.926;8.404;2024-01-15T01:16:04;-0.80;99.90
16767;DHT22;8501;49.926;8.404;2024-01-15T01:18:29;-0.80;99.90
16767;DHT22;8501;49.926;8.404;2024-01-15T01:20:55;-0.80;99.90
16767;DHT22;8501;49.926;8.404;2024-01-15T01:23:20;-0.80;99.90
16767;DHT22;8501;49.926;8.404;2024-01-15T01:25:46;-0.80;99.90
16767;DHT22;8501;49.926;8.404;2024-01-15T01:28:11;-0.80;99.90
16767;DHT22;8501;49.926;8.404;2024-01-15T01:30:37;-0.80;99.90
16767;DHT22;8501;49.926;8.404;2024-01-15T01:33:02;-0.80;99.90
16767;DHT22;8501;49.926;8.404;2024-01-15T01:35:28;-0.80;99.90
16767;DHT22;8501;49.926;8.404;2024-01-15T01:37:53;-0.80;99.90
16767;DHT22;8501;49.926;8.404;2024-01-15T01:40:19;-0.80;99.90
16767;DHT22;8501;49.926;8.404;2024-01-15T01:42:44;-0.80;99.90
16767;DHT22;8501;49.926;8.404;2024-01-15T01:45:10;-0.80;99.90
16767;DHT22;8501;49.926;8.404;2024-01-15T01:47:36;-0.80;99.90
16767;DHT22;8501;49.926;8.404;2024-01-15T01:50:03;-0.80;99.90
16767;DHT22;8501;49.926;8.404;2024-01-15T01:52:28;-0.80;99.90
16767;DHT22;8501;49.926;8.404;2024-01-15T01:54:54;-0.80;99.90
16767;DHT22;8501;49.926;8.404;2024-01-15T01:57:20;-0.80;99.90
16767;DHT22;8501;49.926;8.404;2024-01-15T01:59:46;-0.80;99.90
16767;DHT22;8501;49.926;8.404;2024-01-15T02:02:12;-0.80;99.90
16767;DHT22;8501;49.926;8.404;2024-01-15T02:04:39;-0.70;99.90
16767;DHT22;8501;49.926;8.404;2024-01-15T02:07:04;-0.80;99.90
16767;DHT22;8501;49.926;8.404;2024-01-15T02:09:30;-0.80;99.90
16767;DHT22;8501;49.926;8.404;2024-01-15T02:11:57;-0.80;99.90
16767;DHT22;8501;49.926;8.404;2024-01-15T02:14:22;-0.80;99.90
16767;DHT22;8501;49.926;8.404;2024-01-15T02:16:48;-0.80;99.90
16767;DHT22;8501;49.926;8.404;2024-01-15T02:19:17;-0.70;99.90
16767;DHT22;8501;49.926;8.404;2024-01-15T02:21:43;-0.70;99.90
16767;DHT22;8501;49.926;8.404;2024-01-15T02:24:08;-0.70;99.90
16767;DHT22;8501;49.926;8.404;2024-01-15T02:26:34;-0.70;99.90
16767;DHT22;8501;49.926;8.404;2024-01-15T02:29:07;-0.70;99.90
16767;DHT22;8501;49.926;8.404;2024-01-15T02:31:34;-0.70;99.90
16767;DHT22;8501;49.926;8.404;2024-01-15T02:34:00;-0.70;99.90
16767;DHT22;8501;49.926;8.404;2024-01-15T02:36:25;-0.70;99.90
16767;DHT22;8501;49.926;8.404;2024-01-15T02:38:51;-0.70;99.90
16767;DHT22;8501;49.926;8.404;2024-01-15T02:41:16;-0.70;99.90
16767;DHT22;8501;49.926;8.404;2024-01-15T02:43:42;-0.70;99.90
16767;DHT22;8501;49.926;8.404;2024-01-15T02:46:07;-0.70;99.90
16767;DHT22;8501;49.926;8.404;2024-01-15T02:48:33;-0.70;99.90
16767;DHT22;8501;49.926;8.404;2024-01-15T02:51:00;-0.70;99.90
16767;DHT22;8501;49.926;8.404;2024-01-15T02:53:26;-0.70;99.90
16767;DHT22;8501;49.926;8.404;2024-01-15T02:55:51;-0.70;99.90
16767;DHT22;8501;49.926;8.404;2024-01-15T02:58:17;-0.70;99.90
16767;DHT22;8501;49.926;8.404;2024-01-15T03:00:42;-0.70;99.90
16767;DHT22;8501;49.926;8.404;2024-01-15T03:03:08;-0.70;99.90
16767;DHT22;8501;49.926;8.404;2024-01-15T03:05:34;-0.60;99.90
16767;DHT22;8501;49.926;8.404;2024-01-15T03:07:59;-0.70;99.90
16767;DHT22;8501;49.926;8.404;2024-01-15T03:10:25;-0.60;99.90
16767;DHT22;8501;49.926;8.404;2024-01-15T03:12:50;-0.60;99.90
16767;DHT22;8501;49.926;8.404;2024-01-15T03:15:16;-0.60;99.90
16767;DHT22;8501;49.926;8.404;2024-01-15T03:17:43;-0.60;99.90
16767;DHT22;8501;49.926;8.404;2024-01-15T03:20:09;-0.60;99.90
16767;DHT22;8501;49.926;8.404;2024-01-15T03:22:35;-0.60;99.90
16767;DHT22;8501;49.926;8.404;2024-01-15T03:25:00;-0.60;99.90
16767;DHT22;8501;49.926;8.404;2024-01-15T03:27:26;-0.60;99.90
16767;DHT22;8501;49.926;8.404;2024-01-15T03:29:51;-0.60;99.90
16767;DHT22;8501;49.926;8.404;2024-01-15T03:32:17;-0.60;99.90
16767;DHT22;8501;49.926;8.404;2024-01-15T03:34:43;-0.60;99.90
16767;DHT22;8501;49.926;8.404;2024-01-15T03:37:08;-0.60;99.90
16767;DHT22;8501;49.926;8.404;2024-01-15T03:39:33;-0.60;99.90
16767;DHT22;8501;49.926;8.404;2024-01-15T03:41:59;-0.60;99.90
16767;DHT22;8501;49.926;8.404;2024-01-15T03:44:24;-0.60;99.90
16767;DHT22;8501;49.926;8.404;2024-01-15T03:46:50;-0.50;99.90
16767;DHT22;8501;49.926;8.404;2024-01-15T03:49:16;-0.50;99.90
16767;DHT22;8501;49.926;8.404;2024-01-15T03:51:41;-0.50;99.90
16767;DHT22;8501;49.926;8.404;2024-01-15T03:54:06;-0.50;99.90
16767;DHT22;8501;49.926;8.404;2024-01-15T03:56:32;-0.50;99.90
16767;DHT22;8501;49.926;8.404;2024-01-15T03:58:57;-0.50;99.90
16767;DHT22;8501;49.926;8.404;2024-01-15T04:01:23;-0.50;99.90
16767;DHT22;8501;49.926;8.404;2024-01-15T04:03:48;-0.50;99.90
16767;DHT22;8501;49.926;8.404;2024-01-15T04:06:15;-0.50;99.90
16767;DHT22;8501;49.926;8.404;2024-01-15T04:08:40;-0.50;99.90
16767;DHT22;8501;49.926;8.404;2024-01-15T04:11:06;-0.50;99.90
16767;DHT22;8501;49.926;8.404;2024-01-15T04:13:34;-0.50;99.90
16767;DHT22;8501;49.926;8.404;2024-01-15T04:16:00;-0.50;99.90
16767;DHT22;8501;49.926;8.404;2024-01-15T04:18:26;-0.50;99.90
16767;DHT22;8501;49.926;8.404;2024-01-15T04:20:51;-0.50;99.90
16767;DHT22;8501;49.926;8.404;2024-01-15T04:23:17;-0.50;99.90
16767;DHT22;8501;49.926;8.404;2024-01-15T04:25:42;-0.50;99.90
16767;DHT22;8501;49.926;8.404;2024-01-15T04:28:09;-0.40;99.90
16767;DHT22;8501;49.926;8.404;2024-01-15T04:30:34;-0.40;99.90
16767;DHT22;8501;49.926;8.404;2024-01-15T04:33:00;-0.50;99.90
16767;DHT22;8501;49.926;8.404;2024-01-15T04:35:26;-0.40;99.90
16767;DHT22;8501;49.926;8.404;2024-01-15T04:37:52;-0.50;99.90
16767;DHT22;8501;49.926;8.404;2024-01-15T04:40:17;-0.40;99.90
16767;DHT22;8501;49.926;8.404;2024-01-15T04:42:43;-0.40;99.90
16767;DHT22;8501;49.926;8.404;2024-01-15T04:45:10;-0.50;99.90
16767;DHT22;8501;49.926;8.404;2024-01-15T04:47:35;-0.40;99.90
16767;DHT22;8501;49.926;8.404;2024-01-15T04:50:02;-0.40;99.90
16767;DHT22;8501;49.926;8.404;2024-01-15T04:52:28;-0.40;99.90
16767;DHT22;8501;49.926;8.404;2024-01-15T04:54:53;-0.40;99.90
16767;DHT22;8501;49.926;8.404;2024-01-15T04:57:19;-0.40;99.90
16767;DHT22;8501;49.926;8.404;2024-01-15T04:59:44;-0.40;99.90
16767;DHT22;8501;49.926;8.404;2024-01-15T05:02:10;-0.40;99.90
16767;DHT22;8501;49.926;8.404;2024-01-15T05:04:35;-0.30;99.90
16767;DHT22;8501;49.926;8.404;2024-01-15T05:07:01;-0.30;99.90
16767;DHT22;8501;49.926;8.404;2024-01-15T05:09:26;-0.30;99.90
16767;DHT22;8501;49.926;8.404;2024-01-15T05:11:52;-0.30;99.90
16767;DHT22;8501;49.926;8.404;2024-01-15T05:14:17;-0.40;99.90
16767;DHT22;8501;49.926;8.404;2024-01-15T05:16:49;-0.40;99.90
16767;DHT22;8501;49.926;8.404;2024-01-15T05:19:15;-0.40;99.90
16767;DHT22;8501;49.926;8.404;2024-01-15T05:21:40;-0.40;99.90
16767;DHT22;8501;49.926;8.404;2024-01-15T05:24:06;-0.30;99.90
16767;DHT22;8501;49.926;8.404;2024-01-15T05:26:32;-0.40;99.90
16767;DHT22;8501;49.926;8.404;2024-01-15T05:28:58;-0.40;99.90
16767;DHT22;8501;49.926;8.404;2024-01-15T05:31:23;-0.40;99.90
16767;DHT22;8501;49.926;8.404;2024-01-15T05:33:49;-0.40;99.90
16767;DHT22;8501;49.926;8.404;2024-01-15T05:36:15;-0.40;99.90
16767;DHT22;8501;49.926;8.404;2024-01-15T05:38:40;-0.40;99.90
16767;DHT22;8501;49.926;8.404;2024-01-15T05:41:06;-0.40;99.90
16767;DHT22;8501;49.926;8.404;2024-01-15T05:43:31;-0.40;99.90
16767;DHT22;8501;49.926;8.404;2024-01-15T05:45:57;-0.40;99.90
16767;DHT22;8501;49.926;8.404;2024-01-15T05:48:22;-0.40;99.90
16767;DHT22;8501;49.926;8.404;2024-01-15T05:50:48;-0.40;99.90
16767;DHT22;8501;49.926;8.404;2024-01-15T05:53:13;-0.30;99.90
16767;DHT22;8501;49.926;8.404;2024-01-15T05:55:40;-0.40;99.90
16767;DHT22;8501;49.926;8.404;2024-01-15T05:58:05;-0.30;99.90
16767;DHT22;8501;49.926;8.404;2024-01-15T06:00:31;-0.40;99.90
16767;DHT22;8501;49.926;8.404;2024-01-15T06:02:58;-0.30;99.90
16767;DHT22;8501;49.926;8.404;2024-01-15T06:05:24;-0.30;99.90
16767;DHT22;8501;49.926;8.404;2024-01-15T06:07:50;-0.30;99.90
16767;DHT22;8501;49.926;8.404;2024-01-15T06:10:16;-0.30;99.90
16767;DHT22;8501;49.926;8.404;2024-01-15T06:12:43;-0.30;99.90
16767;DHT22;8501;49.926;8.404;2024-01-15T06:15:09;-0.30;99.90
16767;DHT22;8501;49.926;8.404;2024-01-15T06:17:35;-0.30;99.90
16767;DHT22;8501;49.926;8.404;2024-01-15T06:20:00;-0.30;99.90
16767;DHT22;8501;49.926;8.404;2024-01-15T06:22:26;-0.30;99.90
16767;DHT22;8501;49.926;8.404;2024-01-15T06:24:51;-0.30;99.90
16767;DHT22;8501;49.926;8.404;2024-01-15T06:27:17;-0.30;99.90
16767;DHT22;8501;49.926;8.404;2024-01-15T06:29:45;-0.30;99.90
16767;DHT22;8501;49.926;8.404;2024-01-15T06:32:14;-0.30;99.90
16767;DHT22;8501;49.926;8.404;2024-01-15T06:34:39;-0.30;99.90
16767;DHT22;8501;49.926;8.404;2024-01-15T06:37:06;-0.30;99.90
16767;DHT22;8501;49.926;8.404;2024-01-15T06:39:31;-0.30;99.90
16767;DHT22;8501;49.926;8.404;2024-01-15T06:41:57;-0.30;99.90
16767;DHT22;8501;49.926;8.404;2024-01-15T06:44:22;-0.20;99.90
16767;DHT22;8501;49.926;8.404;2024-01-15T06:46:48;-0.20;99.90
16767;DHT22;8501;49.926;8.404;2024-01-15T06:49:13;-0.20;99.90
16767;DHT22;8501;49.926;8.404;2024-01-15T06:51:39;-0.20;99.90
16767;DHT22;8501;49.926;8.404;2024-01-15T06:54:05;-0.20;99.90
16767;DHT22;8501;49.926;8.404;2024-01-15T06:56:31;-0.20;99.90
16767;DHT22;8501;49.926;8.404;2024-01-15T06:58:57;-0.20;99.90
16767;DHT22;8501;49.926;8.404;2024-01-15T07:01:22;-0.20;99.90
16767;DHT22;8501;49.926;8.404;2024-01-15T07:03:48;-0.20;99.90
16767;DHT22;8501;49.926;8.404;2024-01-15T07:06:13;-0.20;99.90
16767;DHT22;8501;49.926;8.404;2024-01-15T07:08:40;-0.20;99.90
16767;DHT22;8501;49.926;8.404;2024-01-15T07:11:05;-0.20;99.90
16767;DHT22;8501;49.926;8.404;2024-01-15T07:13:32;-0.20;99.90
16767;DHT22;8501;49.926;8.404;2024-01-15T07:15:57;-0.20;99.90
16767;DHT22;8501;49.926;8.404;2024-01-15T07:18:23;-0.20;99.90
16767;DHT22;8501;49.926;8.404;2024-01-15T07:20:49;-0.20;99.90
16767;DHT22;8501;49.926;8.404;2024-01-15T07:23:14;-0.20;99.90
16767;DHT22;8501;49.926;8.404;2024-01-15T07:25:40;-0.20;99.90
16767;DHT22;8501;49.926;8.404;2024-01-15T07:28:05;-0.20;99.90
16767;DHT22;8501;49.926;8.404;2024-01-15T07:30:31;-0.20;99.90
16767;DHT22;8501;49.926;8.404;2024-01-15T07:32:56;-0.10;99.90
16767;DHT22;8501;49.926;8.404;2024-01-15T07:35:22;-0.10;99.90
16767;DHT22;8501;49.926;8.404;2024-01-15T07:37:47;-0.10;99.90
16767;DHT22;8501;49.926;8.404;2024-01-15T07:40:13;-0.10;99.90
16767;DHT22;8501;49.926;8.404;2024-01-15T07:42:38;-0.10;99.90
16767;DHT22;8501;49.926;8.404;2024-01-15T07:45:05;-0.10;99.90
16767;DHT22;8501;49.926;8.404;2024-01-15T07:47:31;-0.10;99.90
16767;DHT22;8501;49.926;8.404;2024-01-15T07:49:57;-0.10;99.90
16767;DHT22;8501;49.926;8.404;2024-01-15T07:52:22;-0.10;99.90
16767;DHT22;8501;49.926;8.404;2024-01-15T07:54:48;0.00;99.90
16767;DHT22;8501;49.926;8.404;2024-01-15T07:57:13;0.00;99.90
16767;DHT22;8501;49.926;8.404;2024-01-15T07:59:39;-0.10;99.90
16767;DHT22;8501;49.926;8.404;2024-01-15T08:02:05;-0.10;99.90
16767;DHT22;8501;49.926;8.404;2024-01-15T08:04:31;0.00;99.90
16767;DHT22;8501;49.926;8.404;2024-01-15T08:06:57;0.00;99.90
16767;DHT22;8501;49.926;8.404;2024-01-15T08:09:22;0.00;99.90
16767;DHT22;8501;49.926;8.404;2024-01-15T08:11:48;0.00;99.90
16767;DHT22;8501;49.926;8.404;2024-01-15T08:14:14;0.00;99.90
16767;DHT22;8501;49.926;8.404;2024-01-15T08:16:40;0.00;99.90
16767;DHT22;8501;49.926;8.404;2024-01-15T08:19:06;0.00;99.90
16767;DHT22;8501;49.926;8.404;2024-01-15T08:21:31;0.00;99.90
16767;DHT22;8501;49.926;8.404;2024-01-15T08:23:58;0.00;99.90
16767;DHT22;8501;49.926;8.404;2024-01-15T08:26:24;0.00;99.90
16767;DHT22;8501;49.926;8.404;2024-01-15T08:28:50;0.10;99.90
16767;DHT22;8501;49.926;8.404;2024-01-15T08:31:15;0.20;99.90
16767;DHT22;8501;49.926;8.404;2024-01-15T08:33:41;0.10;99.90
16767;DHT22;8501;49.926;8.404;2024-01-15T08:36:06;0.20;99.90
16767;DHT22;8501;49.926;8.404;2024-01-15T08:38:32;0.10;99.90
16767;DHT22;8501;49.926;8.404;2024-01-15T08:40:57;0.20;99.90
16767;DHT22;8501;49.926;8.404;2024-01-15T08:43:26;0.20;99.90
16767;DHT22;8501;49.926;8.404;2024-01-15T08:45:51;0.20;99.90
16767;DHT22;8501;49.926;8.404;2024-01-15T08:48:17;0.20;99.90
16767;DHT22;8501;49.926;8.404;2024-01-15T08:50:42;0.20;99.90
16767;DHT22;8501;49.926;8.404;2024-01-15T08:53:11;0.20;99.90
16767;DHT22;8501;49.926;8.404;2024-01-15T08:55:37;0.30;99.90
16767;DHT22;8501;49.926;8.404;2024-01-15T08:58:02;0.20;99.90
16767;DHT22;8501;49.926;8.404;2024-01-15T09:00:28;0.30;99.90
16767;DHT22;8501;49.926;8.404;2024-01-15T09:02:54;0.30;99.90
16767;DHT22;8501;49.926;8.404;2024-01-15T09:05:19;0.30;99.90
16767;DHT22;8501;49.926;8.404;2024-01-15T09:07:45;0.30;99.90
16767;DHT22;8501;49.926;8.404;2024-01-15T09:10:11;0.30;99.90
16767;DHT22;8501;49.926;8.404;2024-01-15T09:12:37;0.20;99.90
16767;DHT22;8501;49.926;8.404;2024-01-15T09:15:02;0.30;99.90
16767;DHT22;8501;49.926;8.404;2024-01-15T09:17:29;0.30;99.90
16767;DHT22;8501;49.926;8.404;2024-01-15T09:19:55;0.30;99.90
16767;DHT22;8501;49.926;8.404;2024-01-15T09:22:20;0.40;99.90
16767;DHT22;8501;49.926;8.404;2024-01-15T09:24:46;0.40;99.90
16767;DHT22;8501;49.926;8.404;2024-01-15T09:27:12;0.30;99.90
16767;DHT22;8501;49.926;8.404;2024-01-15T09:29:37;0.40;99.90
16767;DHT22;8501;49.926;8.404;2024-01-15T09:32:05;0.40;99.90
16767;DHT22;8501;49.926;8.404;2024-01-15T09:34:31;0.40;99.90
16767;DHT22;8501;49.926;8.404;2024-01-15T09:36:56;0.40;99.90
16767;DHT22;8501;49.926;8.404;2024-01-15T09:39:22;0.40;99.90
16767;DHT22;8501;49.926;8.404;2024-01-15T09:41:49;0.40;99.90
16767;DHT22;8501;49.926;8.404;2024-01-15T09:44:16;0.40;99.90
16767;DHT22;8501;49.926;8.404;2024-01-15T09:46:42;0.40;99.90
16767;DHT22;8501;49.926;8.404;2024-01-15T09:49:10;0.40;99.90
16767;DHT22;8501;49.926;8.404;2024-01-15T09:51:36;0.40;99.90
16767;DHT22;8501;49.926;8.404;2024-01-15T09:54:02;0.40;99.90
16767;DHT22;8501;49.926;8.404;2024-01-15T09:56:30;0.50;99.90
16767;DHT22;8501;49.926;8.404;2024-01-15T09:58:55;0.50;99.90
16767;DHT22;8501;49.926;8.404;2024-01-15T10:01:22;0.50;99.90
16767;DHT22;8501;49.926;8.404;2024-01-15T10:03:49;0.50;99.90
16767;DHT22;8501;49.926;8.404;2024-01-15T10:06:16;0.50;99.90
16767;DHT22;8501;49.926;8.404;2024-01-15T10:08:48;0.60;99.90
16767;DHT22;8501;49.926;8.404;2024-01-15T10:11:14;0.60;99.90
16767;DHT22;8501;49.926;8.404;2024-01-15T10:13:40;0.60;99.90
16767;DHT22;8501;49.926;8.404;2024-01-15T10:16:06;0.60;99.90
16767;DHT22;8501;49.926;8.404;2024-01-15T10:18:32;0.60;99.90
16767;DHT22;8501;49.926;8.404;2024-01-15T10:20:58;0.60;99.90
16767;DHT22;8501;49.926;8.404;2024-01-15T10:23:24;0.60;99.90
16767;DHT22;8501;49.926;8.404;2024-01-15T10:25:50;0.60;99.90
16767;DHT22;8501;49.926;8.404;2024-01-15T10:28:17;0.60;99.90
16767;DHT22;8501;49.926;8.404;2024-01-15T10:30:44;0.60;99.90
16767;DHT22;8501;49.926;8.404;2024-01-15T10:33:10;0.60;99.90
16767;DHT22;8501;49.926;8.404;2024-01-15T10:35:37;0.60;99.90
16767;DHT22;8501;49.926;8.404;2024-01-15T10:38:03;0.60;99.90
16767;DHT22;8501;49.926;8.404;2024-01-15T10:40:30;0.60;99.90
16767;DHT22;8501;49.926;8.404;2024-01-15T10:42:56;0.60;99.90
16767;DHT22;8501;49.926;8.404;2024-01-15T10:45:22;0.60;99.90
16767;DHT22;8501;49.926;8.404;2024-01-15T10:47:48;0.70;99.90
16767;DHT22;8501;49.926;8.404;2024-01-15T10:50:14;0.70;99.90
16767;DHT22;8501;49.926;8.404;2024-01-15T10:52:40;0.70;99.90
16767;DHT22;8501;49.926;8.404;2024-01-15T10:55:09;0.70;99.90
16767;DHT22;8501;49.926;8.404;2024-01-15T10:57:36;0.70;99.90
16767;DHT22;8501;49.926;8.404;2024-01-15T11:00:06;0.70;99.90
16767;DHT22;8501;49.926;8.404;2024-01-15T11:02:35;0.70;99.90
16767;DHT22;8501;49.926;8.404;2024-01-15T11:05:01;0.70;99.90
16767;DHT22;8501;49.926;8.404;2024-01-15T11:07:27;0.80;99.90
16767;DHT22;8501;49.926;8.404;2024-01-15T11:09:52;0.80;99.90
16767;DHT22;8501;49.926;8.404;2024-01-15T11:12:18;0.80;99.90
16767;DHT22;8501;49.926;8.404;2024-01-15T11:14:48;0.90;99.90
16767;DHT22;8501;49.926;8.404;2024-01-15T11:17:15;1.00;99.90
16767;DHT22;8501;49.926;8.404;2024-01-15T11:24:54;1.40;99.90
16767;DHT22;8501;49.926;8.404;2024-01-15T11:30:08;1.40;99.90
16767;DHT22;8501;49.926;8.404;2024-01-15T11:32:36;1.40;99.90
16767;DHT22;8501;49.926;8.404;2024-01-15T11:35:02;1.40;99.90
16767;DHT22;8501;49.926;8.404;2024-01-15T11:37:29;1.50;99.90
16767;DHT22;8501;49.926;8.404;2024-01-15T11:40:18;1.50;99.90
16767;DHT22;8501;49.926;8.404;2024-01-15T11:42:45;1.50;99.90
16767;DHT22;8501;49.926;8.404;2024-01-15T11:45:11;1.50;99.90
16767;DHT22;8501;49.926;8.404;2024-01-15T11:50:17;1.50;99.90
16767;DHT22;8501;49.926;8.404;2024-01-15T11:52:55;1.50;99.90
16767;DHT22;8501;49.926;8.404;2024-01-15T11:55:30;1.50;99.90
16767;DHT22;8501;49.926;8.404;2024-01-15T11:58:01;1.50;99.90
16767;DHT22;8501;49.926;8.404;2024-01-15T12:00:27;1.50;99.90
16767;DHT22;8501;49.926;8.404;2024-01-15T12:02:53;1.60;99.90
16767;DHT22;8501;49.926;8.404;2024-01-15T12:05:20;1.60;99.90
16767;DHT22;8501;49.926;8.404;2024-01-15T12:07:47;1.60;99.90
16767;DHT22;8501;49.926;8.404;2024-01-15T12:10:14;1.60;99.90
16767;DHT22;8501;49.926;8.404;2024-01-15T12:15:28;1.60;99.90
16767;DHT22;8501;49.926;8.404;2024-01-15T12:18:01;1.50;99.90
16767;DHT22;8501;49.926;8.404;2024-01-15T12:20:28;1.60;99.90
16767;DHT22;8501;49.926;8.404;2024-01-15T12:22:54;1.60;99.90
16767;DHT22;8501;49.926;8.404;2024-01-15T12:25:24;1.70;99.90
16767;DHT22;8501;49.926;8.404;2024-01-15T12:27:51;1.70;99.90
16767;DHT22;8501;49.926;8.404;2024-01-15T12:30:17;1.70;99.90
16767;DHT22;8501;49.926;8.404;2024-01-15T12:32:43;1.70;99.90
16767;DHT22;8501;49.926;8.404;2024-01-15T12:35:10;1.70;99.90
16767;DHT22;8501;49.926;8.404;2024-01-15T12:37:36;1.80;99.90
16767;DHT22;8501;49.926;8.404;2024-01-15T12:40:03;1.70;99.90
16767;DHT22;8501;49.926;8.404;2024-01-15T12:42:30;1.80;99.90
16767;DHT22;8501;49.926;8.404;2024-01-15T12:45:00;1.80;99.90
16767;DHT22;8501;49.926;8.404;2024-01-15T12:47:25;1.70;99.90
16767;DHT22;8501;49.926;8.404;2024-01-15T12:49:52;1.80;99.90
16767;DHT22;8501;49.926;8.404;2024-01-15T12:52:21;1.80;99.90
16767;DHT22;8501;49.926;8.404;2024-01-15T12:54:49;1.80;99.90
16767;DHT22;8501;49.926;8.404;2024-01-15T12:57:16;1.80;99.90
16767;DHT22;8501;49.926;8.404;2024-01-15T12:59:43;1.80;99.90
16767;DHT22;8501;49.926;8.404;2024-01-15T13:02:10;1.90;99.90
16767;DHT22;8501;49.926;8.404;2024-01-15T13:04:36;2.00;99.90
16767;DHT22;8501;49.926;8.404;2024-01-15T13:07:01;2.00;99.90
16767;DHT22;8501;49.926;8.404;2024-01-15T13:09:27;2.00;99.90
16767;DHT22;8501;49.926;8.404;2024-01-15T13:11:53;2.00;99.90
16767;DHT22;8501;49.926;8.404;2024-01-15T13:14:18;2.00;99.90
16767;DHT22;8501;49.926;8.404;2024-01-15T13:16:44;2.10;99.90
16767;DHT22;8501;49.926;8.404;2024-01-15T13:19:10;2.10;99.90
16767;DHT22;8501;49.926;8.404;2024-01-15T13:21:40;2.20;99.90
16767;DHT22;8501;49.926;8.404;2024-01-15T13:24:06;2.10;99.90
16767;DHT22;8501;49.926;8.404;2024-01-15T13:26:34;2.10;99.90
16767;DHT22;8501;49.926;8.404;2024-01-15T13:29:00;2.20;99.90
16767;DHT22;8501;49.926;8.404;2024-01-15T13:31:35;2.10;99.90
16767;DHT22;8501;49.926;8.404;2024-01-15T13:34:00;2.20;99.90
16767;DHT22;8501;49.926;8.404;2024-01-15T13:36:26;2.20;99.90
16767;DHT22;8501;49.926;8.404;2024-01-15T13:38:53;2.30;99.90
16767;DHT22;8501;49.926;8.404;2024-01-15T13:41:19;2.30;99.90
16767;DHT22;8501;49.926;8.404;2024-01-15T13:43:49;2.30;99.90
16767;DHT22;8501;49.926;8.404;2024-01-15T13:46:15;2.30;99.90
16767;DHT22;8501;49.926;8.404;2024-01-15T13:48:40;2.30;99.90
16767;DHT22;8501;49.926;8.404;2024-01-15T13:51:06;2.30;99.90
16767;DHT22;8501;49.926;8.404;2024-01-15T13:53:31;2.40;99.90
16767;DHT22;8501;49.926;8.404;2024-01-15T13:55:57;2.40;99.90
16767;DHT22;8501;49.926;8.404;2024-01-15T13:58:22;2.40;99.90
16767;DHT22;8501;49.926;8.404;2024-01-15T14:00:48;2.40;99.90
16767;DHT22;8501;49.926;8.404;2024-01-15T14:03:14;2.40;99.90
16767;DHT22;8501;49.926;8.404;2024-01-15T14:05:40;2.50;99.90
16767;DHT22;8501;49.926;8.404;2024-01-15T14:08:06;2.60;99.90
16767;DHT22;8501;49.926;8.404;2024-01-15T14:10:31;2.60;99.90
16767;DHT22;8501;49.926;8.404;2024-01-15T14:12:57;2.70;99.90
16767;DHT22;8501;49.926;8.404;2024-01-15T14:15:23;2.60;99.90
16767;DHT22;8501;49.926;8.404;2024-01-15T14:17:48;2.60;99.90
16767;DHT22;8501;49.926;8.404;2024-01-15T14:20:14;2.60;99.90
16767;DHT22;8501;49.926;8.404;2024-01-15T14:22:40;2.70;99.90
16767;DHT22;8501;49.926;8.404;2024-01-15T14:25:06;2.70;99.90
16767;DHT22;8501;49.926;8.404;2024-01-15T14:27:32;2.60;99.90
16767;DHT22;8501;49.926;8.404;2024-01-15T14:29:57;2.60;99.90
16767;DHT22;8501;49.926;8.404;2024-01-15T14:32:23;2.60;99.90
16767;DHT22;8501;49.926;8.404;2024-01-15T14:34:48;2.60;99.90
16767;DHT22;8501;49.926;8.404;2024-01-15T14:37:14;2.60;99.90
16767;DHT22;8501;49.926;8.404;2024-01-15T14:39:40;2.70;99.90
16767;DHT22;8501;49.926;8.404;2024-01-15T14:42:05;2.60;99.90
16767;DHT22;8501;49.926;8.404;2024-01-15T14:44:31;2.60;99.90
16767;DHT22;8501;49.926;8.404;2024-01-15T14:46:59;2.70;99.90
16767;DHT22;8501;49.926;8.404;2024-01-15T14:49:24;2.70;99.90
16767;DHT22;8501;49.926;8.404;2024-01-15T14:51:50;2.70;99.90
16767;DHT22;8501;49.926;8.404;2024-01-15T14:54:16;2.70;99.90
16767;DHT22;8501;49.926;8.404;2024-01-15T14:56:41;2.70;99.90
16767;DHT22;8501;49.926;8.404;2024-01-15T14:59:08;2.80;99.90
16767;DHT22;8501;49.926;8.404;2024-01-15T15:01:33;2.80;99.90
16767;DHT22;8501;49.926;8.404;2024-01-15T15:03:59;2.80;99.90
16767;DHT22;8501;49.926;8.404;2024-01-15T15:06:25;2.70;99.90
16767;DHT22;8501;49.926;8.404;2024-01-15T15:08:56;2.70;99.90
16767;DHT22;8501;49.926;8.404;2024-01-15T15:11:27;2.70;99.90
16767;DHT22;8501;49.926;8.404;2024-01-15T15:13:53;3.20;99.90
16767;DHT22;8501;49.926;8.404;2024-01-15T15:16:18;3.70;99.90
16767;DHT22;8501;49.926;8.404;2024-01-15T15:18:44;3.60;99.90
16767;DHT22;8501;49.926;8.404;2024-01-15T15:21:11;3.30;99.90
16767;DHT22;8501;49.926;8.404;2024-01-15T15:23:37;3.00;99.90
16767;DHT22;8501;49.926;8.404;2024-01-15T15:26:04;2.90;99.90
16767;DHT22;8501;49.926;8.404;2024-01-15T15:28:30;2.80;99.90
16767;DHT22;8501;49.926;8.404;2024-01-15T15:30:56;2.70;99.90
16767;DHT22;8501;49.926;8.404;2024-01-15T15:33:22;2.60;99.90
16767;DHT22;8501;49.926;8.404;2024-01-15T15:35:48;2.60;99.90
16767;DHT22;8501;49.926;8.404;2024-01-15T15:38:17;2.60;99.90
16767;DHT22;8501;49.926;8.404;2024-01-15T15:40:42;2.50;99.90
16767;DHT22;8501;49.926;8.404;2024-01-15T15:43:08;2.50;99.90
16767;DHT22;8501;49.926;8.404;2024-01-15T15:45:34;2.50;99.90
16767;DHT22;8501;49.926;8.404;2024-01-15T15:47:59;2.50;99.90
16767;DHT22;8501;49.926;8.404;2024-01-15T15:50:25;2.40;99.90
16767;DHT22;8501;49.926;8.404;2024-01-15T15:52:50;2.40;99.90
16767;DHT22;8501;49.926;8.404;2024-01-15T15:55:16;2.40;99.90
16767;DHT22;8501;49.926;8.404;2024-01-15T15:57:42;2.30;99.90
16767;DHT22;8501;49.926;8.404;2024-01-15T16:00:07;2.30;99.90